Hlavní strana
METAR-TAF:

METAR-TAF

Letiště :

Džidda, Saúdská Arábie

Mezinárodní letiště Krále Abda al-Azíze

zeměpisná šířka: 21-42N, zeměpisná délka: 039-11E, výška: 15 m

Aktuální stav počasí

Zpráva byla vytvořena před 1 hodinou a 1 minutami, v 17:00 UTC
Severoseverozápadní vítr 10 kt
Teplota 28°C
Vlhkost vzduchu 48%
Tlak 1007 hPa
Viditelnost 10 km a více
Žádná oblačnost pod 1500 m, nevyskytují se cumulonimby.

METAR: OEJN 241700Z 34010KT CAVOK 28/16 Q1007 NOSIG

Čas: 21:01 (18:01 UTC)

Předpověď počasí

Zpráva byla vytvořena před 1 hodinou a 1 minutami, v 17:00 UTC
Předpověď platná od 24 v 18 UTC do 25 v 24 UTC
Severoseverovýchodní vítr 8 kt
Viditelnost: 7000 m
Skoro jasno ve výšce 4000 ft
Změna
od 25 v 00 UTC do 25 v 02 UTC
Východní vítr 6 kt
Změna
od 25 v 05 UTC do 25 v 07 UTC
Západojihozápadní vítr 12 kt

TAF: OEJN 241700Z 2418/2524 03008KT 7000 FEW040 BECMG 2500/2502 09006KT BECMG 2505/2507 24012KT

Stav a předpovědi počasí z více než 4 000 letišť (zprávy METAR a TAF).

Červené a žluté tečky na mapě představují dostupné meteorologické stanice.

Když kurzor umístíte na tečku, zobrazí se název stanice.

Pak kliknutím zobrazíte stav a předpověď počasí.

Chcete-li změnit mapu, kliknutím na zelené tlačítko se znaménkem +mapu přiblížíte, kliknutím na zelené tlačítko se znaménkem – mapu oddálíte a kliknutím na zelené šipky přejdete na sousední mapy.


METAR-TAF: